• Join FlightAware (Why Join?)
  • Login
  • US Flag 
06:34PM EDT


 

Airport Tracker/Info


-or-


 

Live Flight TrackerFlight Track Log ✈ AAL832 ✈ 16-Jun-2013 ✈ KORD - KMIA

Flight Track Log - Related Links

Times and Time Zones

All times are in EDT time to prevent confusion due to time zone crossing. See the AAL832 flight status page for this flight to view local times or setup timezone preferences in your user account.

Time Position Orientation Groundspeed Altitude Reporting Facility
EDT Latitude Longitude Course Direction KTS MPH feet Rate Location/Type
05:34PM 41.9500 -87.9000 159° South 164 189 1,700  Level Chicago TRACON
05:35PM 41.8833 -87.9000 180° South 235 270 3,200 1,860 Climbing Chicago TRACON
05:36PM 41.8347 -87.8622 150° Southeast 255 293 5,300 2,640 Climbing Chicago Center
05:37PM 41.6584 -87.7179 155° Southeast  Level Estimated
05:37PM 41.7611 -87.8097 152° Southeast 290 334 8,300  Level Chicago Center
05:38PM 41.5506 -87.6555 156° South  Level Estimated
05:38PM 41.6844 -87.7561 152° Southeast 309 356 11,300  Level Chicago Center
05:39PM 41.4427 -87.5932 159° South  Level Estimated
05:39PM 41.5842 -87.6858 152° Southeast 337 388 13,500  Level Chicago Center
05:40PM 41.4853 -87.6144 152° Southeast 395 455 15,800 2,160 Climbing Chicago Center
05:41PM 41.3767 -87.5622 160° South 414 476 18,100 2,160 Climbing Chicago Center
05:42PM 41.2594 -87.5439 173° South 420 483 20,300 2,100 Climbing Chicago Center
05:43PM 41.1414 -87.5175 170° South 428 493 22,500 1,980 Climbing Chicago Center
05:44PM 41.0197 -87.4847 169° South 443 510 24,400 1,860 Climbing Chicago Center
05:45PM 40.8714 -87.4436 168° South 452 520 26,400 1,680 Climbing Chicago Center
05:46PM 40.7436 -87.4117 169° South 466 536 27,900 1,380 Climbing Chicago Center
05:48PM 40.6156 -87.3783 169° South 468 539 29,300 1,500 Climbing Chicago Center
05:49PM 40.4892 -87.3447 169° South 467 537 31,100 1,680 Climbing Chicago Center
05:50PM 40.3539 -87.2892 163° South 464 534 32,800 900 Climbing Chicago Center
05:51PM 40.2322 -87.2325 160° South 467 537 33,000 60 Climbing Chicago Center
05:52PM 40.1125 -87.1725 159° South 464 534 33,000  Level Chicago Center
05:52PM 40.0369 -87.1403 162° South 468 539 33,000 600 Level Indianapolis Center
05:53PM 39.8992 -87.0425 151° Southeast 474 545 34,100 900 Climbing Indianapolis Center
05:54PM 39.7869 -86.9483 147° Southeast 481 554 34,900 420 Climbing Indianapolis Center
05:55PM 39.6739 -86.8556 148° Southeast 485 558 35,000 240 Climbing Indianapolis Center
05:56PM 39.5644 -86.7639 147° Southeast 475 547 35,400 540 Climbing Indianapolis Center
05:57PM 39.4558 -86.6747 148° Southeast 469 540 36,200 720 Climbing Indianapolis Center
05:58PM 39.3472 -86.5839 147° Southeast 469 540 37,000 360 Climbing Indianapolis Center
05:59PM 39.2161 -86.4764 148° Southeast 469 540 37,000  Level Indianapolis Center
06:01PM 39.1069 -86.3856 147° Southeast 471 542 37,000  Level Indianapolis Center
06:03PM 38.8847 -86.2047 148° Southeast 468 539 37,000  Level Indianapolis Center
06:04PM 38.7692 -86.1308 153° Southeast 461 531 37,000  Level Indianapolis Center
06:05PM 38.6475 -86.0822 163° South 454 522 37,000  Level Indianapolis Center
06:06PM 38.5267 -86.0358 163° South 449 517 37,000  Level Indianapolis Center
06:07PM 38.4053 -85.9872 163° South 452 520 37,000  Level Indianapolis Center
06:08PM 38.2853 -85.9394 163° South 449 517 37,000  Level Indianapolis Center
06:09PM 38.1411 -85.8833 163° South 448 516 37,000  Level Indianapolis Center
06:10PM 38.0172 -85.8356 163° South 457 526 37,000  Level Indianapolis Center
06:11PM 37.8944 -85.7878 163° South 458 527 37,000  Level Indianapolis Center
06:12PM 37.7700 -85.7400 163° South 462 532 37,000  Level Indianapolis Center
06:13PM 37.6469 -85.6919 163° South 461 531 37,000  Level Indianapolis Center
06:14PM 37.5228 -85.6444 163° South 463 533 37,000  Level Indianapolis Center
06:15PM 37.3981 -85.5956 163° South 464 534 37,000  Level Indianapolis Center
06:16PM 37.2608 -85.5433 163° South 465 535 37,000  Level Indianapolis Center
06:17PM 37.1314 -85.4950 163° South 462 532 37,000  Level Indianapolis Center
06:18PM 37.0061 -85.4469 163° South 466 536 37,000  Level Indianapolis Center
06:19PM 36.8817 -85.3994 163° South 466 536 37,000  Level Indianapolis Center
06:20PM 36.7600 -85.3539 163° South 460 529 37,000  Level Indianapolis Center
06:21PM 36.6369 -85.3078 163° South 460 529 37,000  Level Indianapolis Center
06:22PM 36.5156 -85.2617 163° South 457 526 37,000  Level Indianapolis Center
06:23PM 36.3700 -85.2081 163° South 454 522 37,000  Level Indianapolis Center
06:24PM 36.2494 -85.1628 163° South 453 521 37,000  Level Indianapolis Center
06:25PM 36.1283 -85.1178 163° South 455 524 37,000  Level Indianapolis Center
06:26PM 36.0097 -85.0744 164° South 449 517 37,000  Level Indianapolis Center
06:27PM 35.8792 -85.0267 163° South 478 550 37,000  Level Indianapolis Center
06:28PM 35.8189 -85.0042 163° South 461 531 37,000  Level Atlanta Center
06:29PM 35.6961 -84.9644 165° South 461 531 37,000  Level Atlanta Center
06:30PM 35.5817 -84.9197 162° South 450 518 37,000  Level Atlanta Center
06:31PM 35.4567 -84.8878 168° South 445 512 37,000  Level Atlanta Center
06:32PM 35.3381 -84.8586 169° South 450 518 37,000  Level Atlanta Center
06:33PM 35.2150 -84.8269 168° South 450 518 37,000  Level Atlanta Center
06:34PM 35.0942 -84.7978 169° South 450 518 37,000  Level Atlanta Center
06:35PM 34.9733 -84.7689 169° South 450 518 37,000  Level Atlanta Center
06:36PM 34.8525 -84.7372 168° South 450 518 37,000  Level Atlanta Center
06:37PM 34.7294 -84.7061 168° South 450 518 37,000  Level Atlanta Center
06:38PM 34.6108 -84.6747 168° South 441 507 37,000  Level Atlanta Center
06:39PM 34.4856 -84.6461 169° South 447 514 37,000  Level Atlanta Center
06:40PM 34.3628 -84.6150 168° South 453 521 37,000  Level Atlanta Center
06:41PM 34.2397 -84.5842 168° South 453 521 37,000  Level Atlanta Center
06:42PM 34.1106 -84.5531 169° South 453 521 37,000  Level Atlanta Center
06:43PM 33.9833 -84.5222 169° South 465 535 37,000  Level Atlanta Center
06:44PM 33.8539 -84.4942 170° South 472 543 37,000  Level Atlanta Center
06:45PM 33.7331 -84.4633 168° South 472 543 37,000  Level Atlanta Center
06:46PM 33.6078 -84.4328 169° South 465 535 37,000  Level Atlanta Center
06:47PM 33.4828 -84.3775 160° South 471 542 37,000  Level Atlanta Center
06:48PM 33.3619 -84.3272 161° South 471 542 37,000  Level Atlanta Center
06:49PM 33.2367 -84.2772 162° South 466 536 37,000  Level Atlanta Center
06:50PM 33.1178 -84.2272 161° South 457 526 37,000  Level Atlanta Center
06:51PM 32.9989 -84.1750 160° South 457 526 37,000  Level Atlanta Center
06:52PM 32.8778 -84.1278 162° South 457 526 37,000  Level Atlanta Center
06:53PM 32.7589 -84.0758 160° South 457 526 37,000  Level Atlanta Center
06:54PM 32.6378 -84.0242 160° South 462 532 37,000  Level Atlanta Center
06:55PM 32.5147 -83.9772 162° South 462 532 37,000  Level Atlanta Center
06:56PM 32.3956 -83.9258 160° South 462 532 37,000  Level Atlanta Center
06:57PM 32.2744 -83.8767 161° South 462 532 37,000  Level Atlanta Center
06:58PM 32.1533 -83.8278 161° South 462 532 37,000  Level Atlanta Center
06:58PM 32.1047 -83.8075 161° South 460 529 37,000  Level Jacksonville Center
06:59PM 31.9861 -83.7597 161° South 460 529 37,000  Level Jacksonville Center
07:00PM 31.8550 -83.7047 160° South 460 529 37,000  Level Jacksonville Center
07:01PM 31.7319 -83.6547 161° South 460 529 37,000  Level Jacksonville Center
07:02PM 31.6050 -83.6047 161° South 460 529 37,000  Level Jacksonville Center
07:03PM 31.4819 -83.5578 162° South 469 540 37,000  Level Jacksonville Center
07:04PM 31.3633 -83.5106 161° South 469 540 37,000  Level Jacksonville Center
07:05PM 31.2403 -83.4683 164° South 462 532 37,000  Level Jacksonville Center
07:06PM 31.1150 -83.4411 169° South 462 532 37,000  Level Jacksonville Center
07:07PM 30.9900 -83.4111 168° South 462 532 37,000  Level Jacksonville Center
07:08PM 30.8647 -83.3814 168° South 462 532 37,000 -60 Level Jacksonville Center
07:09PM 30.7439 -83.3542 169° South 462 532 36,900 -60 Descending Jacksonville Center
07:10PM 30.6208 -83.3272 169° South 462 532 36,900  Level Jacksonville Center
07:11PM 30.4956 -83.2975 168° South 462 532 37,000  Climbing Jacksonville Center
07:12PM 30.3744 -83.2731 170° South 456 525 36,900  Descending Jacksonville Center
07:13PM 30.2536 -83.2461 169° South 450 518 37,000  Climbing Jacksonville Center
07:14PM 30.1303 -83.2192 169° South 450 518 37,000 -60 Level Jacksonville Center
07:15PM 30.0053 -83.1900 169° South 450 518 36,900 -60 Descending Jacksonville Center
07:16PM 29.8819 -83.1656 170° South 456 525 36,900  Level Jacksonville Center
07:17PM 29.7569 -83.1367 169° South 452 520 36,900  Level Jacksonville Center
07:18PM 29.6400 -83.1100 169° South 466 536 37,000  Climbing Jacksonville Center
07:19PM 29.5169 -83.0858 170° South 447 514 37,000  Level Jacksonville Center
07:20PM 29.4000 -83.0569 168° South 456 525 37,000  Level Jacksonville Center
07:21PM 29.2789 -83.0306 169° South 456 525 37,000 -60 Level Jacksonville Center
07:22PM 29.1600 -83.0044 169° South 451 519 36,900  Descending Jacksonville Center
07:23PM 29.0369 -82.9781 169° South 451 519 37,000  Climbing Jacksonville Center
07:24PM 28.9158 -82.9494 168° South 451 519 36,900  Descending Jacksonville Center
07:25PM 28.7928 -82.9233 169° South 451 519 37,000  Climbing Jacksonville Center
07:26PM 28.6611 -82.8972 170° South 446 513 37,000  Level Jacksonville Center
07:27PM 28.5361 -82.8714 170° South 446 513 37,000  Level Jacksonville Center
07:29PM 28.3331 -82.8275 169° South 440 506 37,000  Level Miami Center
07:30PM 28.2131 -82.8000 169° South 445 512 37,000 -60 Level Miami Center
07:31PM 28.0933 -82.7725 169° South 445 512 36,900  Descending Miami Center
07:32PM 27.9797 -82.7456 168° South 445 512 37,000  Climbing Miami Center
07:33PM 27.8542 -82.7061 164° South 450 518 36,900  Descending Miami Center
07:34PM 27.7244 -82.6597 162° South 441 507 37,000  Climbing Miami Center
07:35PM 27.6197 -82.6192 161° South 441 507 37,000  Level Miami Center
07:36PM 27.4903 -82.5706 162° South 441 507 37,000  Level Miami Center
07:37PM 27.3750 -82.5275 162° South 436 502 37,000  Level Miami Center
07:38PM 27.2600 -82.4844 162° South 429 494 37,000 -60 Level Miami Center
07:39PM 27.1592 -82.4469 162° South 429 494 36,900 -60 Descending Miami Center
07:40PM 27.0439 -82.4042 162° South 435 501 36,900 -540 Level Miami Center
07:41PM 26.9236 -82.3308 151° Southeast 442 509 35,900 -1,440 Descending Miami Center
07:42PM 26.8158 -82.2514 147° Southeast 442 509 34,100 -1,800 Descending Miami Center
07:43PM 26.7081 -82.1767 148° Southeast 456 525 32,300 -1,980 Descending Miami Center
07:44PM 26.5942 -82.0950 147° Southeast 472 543 30,200 -2,160 Descending Miami Center
07:45PM 26.4822 -82.0156 148° Southeast 477 549 28,000 -2,220 Descending Miami Center
07:46PM 26.3722 -81.9367 147° Southeast 477 549 25,800 -2,100 Descending Miami Center
07:47PM 26.2808 -81.8656 145° Southeast 472 543 23,800 -2,040 Descending Miami Center
07:48PM 26.1808 -81.7944 147° Southeast 445 512 21,800 -1,980 Descending Miami Center
07:49PM 26.1111 -81.6944 128° Southeast 413 475 19,900 -1,800 Descending Miami Center
07:50PM 26.0392 -81.5944 129° Southeast 408 470 18,300 -1,560 Descending Miami Center
07:51PM 25.9756 -81.4947 125° Southeast 408 470 16,800 -1,500 Descending Miami Center
07:52PM 25.9350 -81.3917 114° Southeast 387 445 15,400 -1,380 Descending Miami Center
07:53PM 25.8942 -81.2956 115° Southeast 365 420 14,100 -1,500 Descending Miami Center
07:54PM 25.8847 -81.1867 95° East 343 395 12,500 -1,620 Descending Miami Center
07:54PM 25.8839 -81.1428 91° East 341 392 11,900 -1,500 Descending Miami Center
07:55PM 25.8900 -81.0828 84° East 338 389 11,000 -1,560 Descending Miami Center
07:55PM 25.8875 -81.0228 93° East 332 382 10,200 -1,140 Descending Miami Center
07:56PM 25.8886 -80.9836 88° East 324 373 9,900 -420 Descending Miami Center
07:56PM 25.8839 -80.9303 96° East 291 335 9,800 -720 Descending Miami Center
07:57PM 25.8872 -80.8842 85° East 309 356 9,200 -1,200 Descending Miami Center
07:58PM 25.8803 -80.8239 97° East 277 319 8,400 -1,140 Descending Miami Center
07:58PM 25.8853 -80.8011 76° East 285 328 8,100 -1,380 Descending Miami Center
07:59PM 25.8783 -80.7431 98° East 269 310 7,000 -1,440 Descending Miami Center
07:59PM 25.8811 -80.7156 84° East 272 313 6,700 -1,140 Descending Miami Center
08:00PM 25.8786 -80.6600 93° East 264 304 5,900 -1,020 Descending Miami Center
08:00PM 25.8789 -80.6392 89° East 267 307 5,700 -1,140 Descending Miami Center
08:01PM 25.8739 -80.5975 98° East 232 267 5,000 -900 Descending Miami Center
08:01PM 25.8789 -80.5631 81° East 248 285 4,800 -840 Descending Miami Center
08:02PM 25.8722 -80.5006 97° East 237 273 3,900 -1,020 Descending Miami Center